Grandview, TX (76050)

11:51 AM CDT on August 28, 2016 (GMT -0500)
SE Johnson County | | Change Station

Elev 614 ft 32.30 °N, 97.13 °W | Updated 1 minute ago

Scattered Clouds
Scattered Clouds
84.3 °F
Feels Like 92 °F
N
0.0
Wind Variable Wind from SE
Gusts 0.0 mph

Today
High -- | Low -- °F
--% Chance of Precip.
Yesterday
High -- | Low -- °F
Precip. -- in
Pressure 30.08 in
Visibility 10.0 miles
Clouds Scattered Clouds 2800 ft
Heat Index 92 °F
Dew Point 74 °F
Humidity 72%
Rainfall 0.00 in
Snow Depth Not available.
7:01 AM 7:57 PM
Waning Crescent, 14% visible
METAR KINJ 281635Z AUTO 03006KT 10SM SCT028 29/21 A3008 RMK AO2 T02870214
Pressure 30.08 in
Visibility 10.0 miles
Clouds Scattered Clouds 2800 ft
Heat Index 92 °F
Dew Point 74 °F
Humidity 72%
Rainfall 0.00 in
Snow Depth Not available.
7:01 AM 7:57 PM
Waning Crescent, 14% visible
METAR KINJ 281635Z AUTO 03006KT 10SM SCT028 29/21 A3008 RMK AO2 T02870214

10-Day Weather Forecast

Almanac

Astronomy

Aug. 28, 2016 Rise Set
Actual Time
Civil Twilight
Nautical Twilight
Astronomical Twilight
Moon
Length of Visible Light
Length of Day
Tomorrow will be .
, % of the Moon is Illuminated

Today's Extremes

State Highs State Lows

Community

WunderPhotos

Upload Photos

1,935,627 photos uploaded!

WunderBlog® & News

Nearby

Air Quality

  Air Quality AQ Index Pollutant
Not available.

Snow Depth

Station Depth Elevation

Earthquake Activity

City Distance Mag. Time & Date
Minimum magnitude displayed is 2.5.

Coastal Water Temperatures

Place Temperature

Stations

Nearby Weather Stations

Station Location Temp. Windchill Dew Point Humidity Wind Precip. Elev Updated Type
                   

Watches & Warnings

There are currently no watches in effect.